Time;durP1;ratioP1;P1;durP2;ratioP2;P2;SDS_P1;SDS_P2;PMS_P1;PMS_P2;Temp;Humidity;BMP_temperature;BMP_pressure;BME280_temperature;BME280_humidity;BME280_pressure;Samples;Min_cycle;Max_cycle;Signal;HPM_P1;HPM_P2
2023/07/08 00:00:22;;;;;;;0.00;0.00;;;;;;;24.45;nan;100526.59;4973284;28;20027;-82
2023/07/08 00:02:48;;;;;;;0.10;0.10;;;;;;;24.44;nan;100520.38;4991281;28;20057;-81
2023/07/08 00:05:15;;;;;;;0.00;0.00;;;;;;;24.43;nan;100517.91;4974144;28;20042;-82
2023/07/08 00:07:41;;;;;;;0.00;0.00;;;;;;;24.31;nan;100516.09;4993062;28;20038;-82
2023/07/08 00:10:19;;;;;;;0.00;0.00;;;;;;;24.16;nan;100518.50;4971750;28;20126;-82
2023/07/08 00:12:47;;;;;;;0.00;0.00;;;;;;;24.04;nan;100518.56;4987838;28;20134;-82
2023/07/08 00:15:12;;;;;;;0.00;0.00;;;;;;;23.95;nan;100515.44;4973645;28;20042;-82
2023/07/08 00:17:38;;;;;;;0.00;0.00;;;;;;;23.89;nan;100508.28;4991525;28;20034;-81
2023/07/08 00:20:13;;;;;;;0.00;0.00;;;;;;;23.89;nan;100508.28;4991201;28;20042;-81
2023/07/08 00:22:38;;;;;;;0.00;0.00;;;;;;;23.78;nan;100505.63;4991563;28;20038;-82
2023/07/08 00:25:04;;;;;;;0.00;0.00;;;;;;;23.77;nan;100504.81;4991412;28;20046;-82
2023/07/08 00:27:29;;;;;;;0.00;0.00;;;;;;;23.75;nan;100506.94;4991095;28;20046;-82
2023/07/08 00:29:54;;;;;;;0.00;0.00;;;;;;;23.63;nan;100498.84;4990310;28;20408;-81
2023/07/08 00:32:20;;;;;;;0.00;0.00;;;;;;;23.74;nan;100499.91;4991465;28;20504;-81
2023/07/08 00:34:45;;;;;;;0.00;0.00;;;;;;;23.91;nan;100491.84;4975221;28;20281;-81
2023/07/08 00:37:12;;;;;;;0.00;0.00;;;;;;;24.07;nan;100498.34;4995961;28;20336;-82
2023/07/08 00:39:38;;;;;;;0.10;0.10;;;;;;;24.15;nan;100503.38;4973705;28;20560;-82
2023/07/08 00:42:17;;;;;;;0.00;0.00;;;;;;;24.22;nan;100505.91;4987410;28;20066;-81
2023/07/08 00:44:43;;;;;;;0.00;0.00;;;;;;;24.24;nan;100501.91;4994881;28;20031;-81
2023/07/08 00:47:11;;;;;;;0.00;0.00;;;;;;;24.24;nan;100503.78;4977879;28;20105;-82
2023/07/08 00:49:45;;;;;;;0.05;0.05;;;;;;;24.17;nan;100493.97;4968057;28;20046;-81
2023/07/08 00:52:22;;;;;;;0.03;0.03;;;;;;;24.06;nan;100502.13;4994642;28;20100;-82
2023/07/08 00:54:53;;;;;;;0.00;0.00;;;;;;;23.90;nan;100504.50;4994508;28;20031;-81
2023/07/08 00:57:19;;;;;;;0.00;0.00;;;;;;;23.77;nan;100504.81;4994982;28;20038;-81
2023/07/08 00:59:51;;;;;;;0.00;0.00;;;;;;;23.62;nan;100512.56;4977665;28;20032;-82
2023/07/08 01:02:19;;;;;;;0.00;0.00;;;;;;;23.40;nan;100507.78;4977047;28;20042;-82
2023/07/08 01:04:57;;;;;;;0.10;0.10;;;;;;;23.21;nan;100508.97;4977728;28;20596;-82
2023/07/08 01:07:25;;;;;;;0.00;0.00;;;;;;;22.86;nan;100518.69;4994899;28;20093;-81
2023/07/08 01:09:58;;;;;;;0.00;0.00;;;;;;;22.69;nan;100517.72;4994882;28;20101;-81
2023/07/08 01:12:29;;;;;;;0.00;0.00;;;;;;;22.48;nan;100522.63;4969701;28;20109;-81
2023/07/08 01:14:55;;;;;;;0.00;0.00;;;;;;;;;;4992569;28;20043;-81
2023/07/08 01:17:21;;;;;;;0.00;0.00;;;;;;;22.29;nan;100520.22;4995172;28;20104;-81
2023/07/08 01:19:48;;;;;;;0.05;0.05;;;;;;;22.19;nan;100515.34;4994794;28;20030;-81
2023/07/08 01:22:13;;;;;;;0.00;0.00;;;;;;;22.14;nan;100521.41;4993670;28;20041;-81
2023/07/08 01:24:42;;;;;;;0.10;0.10;;;;;;;22.14;nan;100517.91;4977263;28;20049;-81
2023/07/08 01:27:11;;;;;;;0.10;0.10;;;;;;;22.04;nan;100515.75;4978080;28;20089;-81
2023/07/08 01:29:37;;;;;;;0.10;0.10;;;;;;;22.04;nan;100515.75;4977591;28;20043;-81
2023/07/08 01:32:02;;;;;;;0.00;0.00;;;;;;;22.02;nan;100517.84;4976723;28;20366;-82
2023/07/08 01:34:29;;;;;;;0.10;0.10;;;;;;;22.04;nan;100516.56;4993159;28;20555;-81
2023/07/08 01:36:58;;;;;;;0.10;0.10;;;;;;;21.97;nan;100515.84;4992637;28;20181;-81
2023/07/08 01:39:25;;;;;;;0.00;0.00;;;;;;;21.93;nan;100519.19;4964728;28;20409;-82
2023/07/08 01:41:51;;;;;;;0.10;0.10;;;;;;;21.89;nan;100518.03;4993479;28;20145;-82
2023/07/08 01:44:36;;;;;;;0.10;0.10;;;;;;;21.81;nan;100511.09;4994085;28;20575;-81
2023/07/08 01:47:12;;;;;;;0.10;0.10;;;;;;;21.76;nan;100513.63;4994398;28;20030;-82
2023/07/08 01:49:40;;;;;;;0.05;0.05;;;;;;;21.69;nan;100512.88;4988133;28;20061;-81
2023/07/08 01:52:07;;;;;;;0.10;0.10;;;;;;;21.62;nan;100511.09;4994485;28;20085;-82
2023/07/08 01:54:32;;;;;;;0.10;0.10;;;;;;;21.64;nan;100508.16;4977295;28;20500;-81
2023/07/08 01:56:58;;;;;;;0.10;0.10;;;;;;;21.64;nan;100502.78;4995247;28;20034;-82
2023/07/08 01:59:23;;;;;;;0.10;0.10;;;;;;;21.78;nan;100500.75;4994974;28;20395;-81
2023/07/08 02:01:54;;;;;;;0.10;0.10;;;;;;;21.85;nan;100494.25;4994754;28;20034;-81
2023/07/08 02:04:19;;;;;;;0.10;0.10;;;;;;;21.87;nan;100509.34;4975960;28;20026;-81
2023/07/08 02:06:54;;;;;;;0.10;0.10;;;;;;;21.83;nan;100500.91;4995762;28;20123;-81
2023/07/08 02:09:20;;;;;;;0.00;0.00;;;;;;;21.88;nan;100493.00;4978262;28;20038;-81
2023/07/08 02:11:45;;;;;;;0.10;0.10;;;;;;;21.95;nan;100488.34;4996000;28;20396;-81
2023/07/08 02:14:11;;;;;;;0.10;0.10;;;;;;;22.00;nan;100493.84;4995048;28;20049;-81
2023/07/08 02:16:36;;;;;;;0.10;0.10;;;;;;;22.01;nan;100489.28;4994719;28;20624;-81
2023/07/08 02:19:01;;;;;;;0.10;0.10;;;;;;;21.93;nan;100486.91;4978201;28;20278;-81
2023/07/08 02:21:30;;;;;;;0.10;0.10;;;;;;;22.02;nan;100481.00;4995862;28;20328;-81
2023/07/08 02:23:55;;;;;;;0.10;0.10;;;;;;;22.22;nan;100488.00;4995379;28;20282;-82
2023/07/08 02:26:20;;;;;;;0.10;0.10;;;;;;;22.34;nan;100479.94;4996337;28;20045;-81
2023/07/08 02:28:46;;;;;;;0.00;0.00;;;;;;;22.48;nan;100478.69;4979434;28;20640;-81
2023/07/08 02:31:11;;;;;;;0.10;0.10;;;;;;;22.57;nan;100482.69;4973262;28;20530;-82
2023/07/08 02:33:36;;;;;;;0.10;0.10;;;;;;;22.67;nan;100485.63;4974316;28;20662;-81
2023/07/08 02:36:02;;;;;;;0.10;0.10;;;;;;;22.68;nan;100489.94;4994207;28;20042;-81
2023/07/08 02:38:27;;;;;;;0.00;0.00;;;;;;;22.72;nan;100494.91;4976489;28;20345;-82
2023/07/08 02:40:52;;;;;;;0.10;0.10;;;;;;;22.77;nan;100501.22;4973131;28;20042;-81
2023/07/08 02:43:18;;;;;;;0.00;0.00;;;;;;;22.85;nan;100498.16;4980831;28;20043;-81
2023/07/08 02:45:43;;;;;;;0.10;0.10;;;;;;;22.85;nan;100502.75;4993837;28;20185;-81
2023/07/08 02:48:08;;;;;;;0.10;0.10;;;;;;;22.81;nan;100504.25;4974971;28;20286;-81
2023/07/08 02:50:33;;;;;;;0.10;0.10;;;;;;;22.87;nan;100506.84;4963454;28;20275;-81
2023/07/08 02:52:58;;;;;;;0.10;0.10;;;;;;;22.85;nan;100503.56;4971068;28;20704;-81
2023/07/08 02:55:24;;;;;;;0.10;0.10;;;;;;;22.84;nan;100503.81;4990701;28;20049;-81
2023/07/08 02:57:49;;;;;;;0.07;0.07;;;;;;;22.77;nan;100500.41;4970151;28;20334;-81
2023/07/08 03:00:15;;;;;;;0.08;0.08;;;;;;;22.64;nan;100501.41;4989257;28;20281;-81
2023/07/08 03:02:40;;;;;;;0.00;0.00;;;;;;;22.46;nan;100510.44;4969400;28;20046;-81
2023/07/08 03:05:06;;;;;;;0.07;0.07;;;;;;;22.29;nan;100514.84;4989926;28;20048;-81
2023/07/08 03:07:31;;;;;;;0.10;0.10;;;;;;;22.08;nan;100506.19;4973755;28;20289;-81
2023/07/08 03:09:57;;;;;;;0.05;0.05;;;;;;;21.94;nan;100512.78;4991349;28;20041;-81
2023/07/08 03:12:22;;;;;;;0.10;0.10;;;;;;;21.71;nan;100508.91;4978074;28;20397;-81
2023/07/08 03:14:47;;;;;;;0.10;0.10;;;;;;;21.58;nan;100520.66;4991305;28;20039;-81
2023/07/08 03:17:13;;;;;;;0.10;0.10;;;;;;;21.46;nan;100516.25;4992851;28;20041;-82
2023/07/08 03:19:38;;;;;;;0.10;0.10;;;;;;;21.31;nan;100519.25;4992307;28;20345;-82
2023/07/08 03:22:05;;;;;;;0.10;0.10;;;;;;;21.25;nan;100515.59;4972824;28;20035;-82
2023/07/08 03:24:30;;;;;;;0.08;0.08;;;;;;;21.22;nan;100513.38;4975070;28;20274;-82
2023/07/08 03:26:59;;;;;;;0.10;0.10;;;;;;;21.29;nan;100511.44;4976751;28;20180;-82
2023/07/08 03:29:24;;;;;;;0.10;0.10;;;;;;;21.44;nan;100518.34;4974410;28;20053;-82
2023/07/08 03:31:50;;;;;;;0.10;0.10;;;;;;;21.39;nan;100519.00;4976145;28;20030;-82
2023/07/08 03:34:17;;;;;;;0.10;0.10;;;;;;;21.31;nan;100525.50;4993522;28;20489;-82
2023/07/08 03:36:48;;;;;;;0.10;0.10;;;;;;;21.18;nan;100533.69;4995187;28;20284;-82
2023/07/08 03:39:14;;;;;;;;;;;;;;;20.94;nan;100527.28;4997104;28;20033;-82
2023/07/08 03:41:39;;;;;;;0.10;0.10;;;;;;;20.88;nan;100531.69;4995905;28;20946;-82
2023/07/08 03:44:04;;;;;;;0.10;0.10;;;;;;;20.79;nan;100527.63;4979758;28;20026;-82
2023/07/08 03:46:29;;;;;;;0.10;0.10;;;;;;;20.74;nan;100536.34;4996119;28;20281;-82
2023/07/08 03:48:55;;;;;;;0.10;0.10;;;;;;;20.76;nan;100525.34;4996180;28;20795;-82
2023/07/08 03:51:24;;;;;;;0.10;0.10;;;;;;;20.73;nan;100528.47;4979594;28;20270;-82
2023/07/08 03:53:51;;;;;;;0.00;0.00;;;;;;;20.72;nan;100529.53;4996174;28;20030;-82
2023/07/08 03:56:16;;;;;;;0.10;0.10;;;;;;;20.74;nan;100524.78;4993764;28;20065;-82
2023/07/08 03:58:41;;;;;;;0.10;0.10;;;;;;;20.77;nan;100535.06;4994698;28;20035;-82
2023/07/08 04:01:20;;;;;;;0.10;0.10;;;;;;;20.85;nan;100532.09;4993930;28;20495;-82
2023/07/08 04:03:46;;;;;;;0.10;0.10;;;;;;;20.92;nan;100532.88;4991879;28;20030;-82
2023/07/08 04:06:11;;;;;;;0.10;0.10;;;;;;;20.98;nan;100526.63;4992496;28;20031;-83
2023/07/08 04:08:36;;;;;;;0.10;0.10;;;;;;;21.00;nan;100524.53;4998122;28;20038;-82
2023/07/08 04:11:02;;;;;;;0.10;0.10;;;;;;;21.14;nan;100527.09;4998064;28;20100;-82
2023/07/08 04:13:27;;;;;;;0.10;0.10;;;;;;;21.22;nan;100526.81;4992136;28;20038;-82
2023/07/08 04:15:58;;;;;;;0.10;0.10;;;;;;;21.26;nan;100529.88;4995693;28;20034;-82
2023/07/08 04:18:24;;;;;;;;;;;;;;;21.21;nan;100526.00;4991043;28;20047;-82
2023/07/08 04:20:52;;;;;;;0.10;0.10;;;;;;;21.18;nan;100525.63;4997201;28;20008;-82
2023/07/08 04:23:18;;;;;;;0.10;0.10;;;;;;;21.15;nan;100526.06;4983842;28;20038;-82
2023/07/08 04:25:43;;;;;;;0.10;0.10;;;;;;;21.18;nan;100520.22;5000661;28;20039;-82
2023/07/08 04:28:09;;;;;;;0.05;0.05;;;;;;;21.25;nan;100523.69;4999001;28;20049;-82
2023/07/08 04:30:40;;;;;;;0.10;0.10;;;;;;;21.32;nan;100519.06;4977274;28;20105;-82
2023/07/08 04:33:07;;;;;;;0.10;0.10;;;;;;;21.36;nan;100520.25;4985053;28;20833;-82
2023/07/08 04:35:33;;;;;;;0.10;0.10;;;;;;;21.31;nan;100517.44;4992100;28;20100;-82
2023/07/08 04:37:58;;;;;;;0.08;0.08;;;;;;;21.31;nan;100530.03;4990668;28;20042;-82
2023/07/08 04:40:23;;;;;;;0.10;0.10;;;;;;;21.29;nan;100521.38;4974345;28;20325;-81
2023/07/08 04:42:51;;;;;;;0.10;0.10;;;;;;;21.33;nan;100523.41;4993349;28;20297;-81
2023/07/08 04:45:17;;;;;;;0.10;0.10;;;;;;;21.40;nan;100529.56;4994086;28;20282;-82
2023/07/08 04:47:43;;;;;;;0.10;0.10;;;;;;;21.37;nan;100532.66;4994770;28;20038;-82
2023/07/08 04:50:10;;;;;;;0.10;0.10;;;;;;;21.46;nan;100532.41;4992412;28;20045;-82
2023/07/08 04:52:35;;;;;;;0.10;0.10;;;;;;;21.57;nan;100542.41;4971738;28;20031;-82
2023/07/08 04:55:00;;;;;;;0.10;0.10;;;;;;;21.58;nan;100538.69;4992709;28;20408;-82
2023/07/08 04:57:25;;;;;;;0.10;0.10;;;;;;;21.62;nan;100538.00;4993503;28;20070;-82
2023/07/08 04:59:51;;;;;;;0.00;0.00;;;;;;;21.96;nan;100537.63;4993421;28;21009;-82
2023/07/08 05:02:16;;;;;;;0.10;0.10;;;;;;;21.97;nan;100534.69;4975100;28;20134;-82
2023/07/08 05:04:41;;;;;;;0.00;0.00;;;;;;;22.33;nan;100538.38;4973392;28;20407;-82
2023/07/08 05:07:06;;;;;;;0.00;0.00;;;;;;;22.65;nan;100528.16;4992584;28;20414;-82
2023/07/08 05:09:32;;;;;;;0.00;0.00;;;;;;;22.64;nan;100520.28;4973942;28;20076;-82
2023/07/08 05:11:57;;;;;;;0.00;0.00;;;;;;;23.06;nan;100525.66;4992637;28;20437;-82
2023/07/08 05:14:22;;;;;;;0.00;0.00;;;;;;;23.36;nan;100522.84;4973815;28;20827;-82
2023/07/08 05:16:48;;;;;;;0.00;0.00;;;;;;;23.71;nan;100530.84;4992395;28;20405;-82
2023/07/08 05:19:13;;;;;;;0.00;0.00;;;;;;;23.92;nan;100529.41;4974852;28;20419;-82
2023/07/08 05:21:38;;;;;;;0.00;0.00;;;;;;;24.22;nan;100541.03;4988306;28;20450;-82
2023/07/08 05:24:05;;;;;;;0.00;0.00;;;;;;;23.97;nan;100546.78;4993174;28;20516;-82
2023/07/08 05:26:32;;;;;;;0.00;0.00;;;;;;;23.92;nan;100542.09;4976022;28;20041;-82
2023/07/08 05:28:57;;;;;;;0.00;0.00;;;;;;;24.29;nan;100545.25;4990854;28;20769;-82
2023/07/08 05:31:22;;;;;;;0.00;0.00;;;;;;;24.35;nan;100548.84;4975846;28;20045;-81
2023/07/08 05:33:48;;;;;;;0.00;0.00;;;;;;;24.50;nan;100548.31;4974857;28;20050;-81
2023/07/08 05:36:13;;;;;;;0.00;0.00;;;;;;;24.62;nan;100551.78;4991307;28;20068;-81
2023/07/08 05:38:38;;;;;;;0.00;0.00;;;;;;;24.75;nan;100556.88;4992028;28;20280;-81
2023/07/08 05:41:03;;;;;;;0.00;0.00;;;;;;;24.65;nan;100553.19;4991653;28;20038;-81
2023/07/08 05:43:29;;;;;;;0.00;0.00;;;;;;;24.54;nan;100563.00;4989386;28;20576;-81
2023/07/08 05:46:00;;;;;;;0.00;0.00;;;;;;;24.57;nan;100562.50;4973345;28;20042;-82
2023/07/08 05:48:25;;;;;;;0.00;0.00;;;;;;;24.73;nan;100577.94;4985442;28;20085;-81
2023/07/08 05:50:51;;;;;;;0.00;0.00;;;;;;;24.78;nan;100574.50;4992072;28;20125;-81
2023/07/08 05:53:19;;;;;;;0.00;0.00;;;;;;;24.84;nan;100594.31;4992644;28;20038;-82
2023/07/08 05:55:45;;;;;;;0.00;0.00;;;;;;;25.06;nan;100603.38;4993035;28;20042;-81
2023/07/08 05:58:10;;;;;;;0.00;0.00;;;;;;;25.20;nan;100606.59;4974870;28;20041;-81
2023/07/08 06:00:36;;;;;;;0.00;0.00;;;;;;;25.35;nan;100606.00;4991093;28;20501;-82
2023/07/08 06:03:02;;;;;;;0.00;0.00;;;;;;;25.57;nan;100620.41;4992647;28;20057;-82
2023/07/08 06:05:27;;;;;;;0.00;0.00;;;;;;;25.90;nan;100645.00;4990892;28;20034;-82
2023/07/08 06:07:53;;;;;;;0.00;0.00;;;;;;;25.99;nan;100659.75;4992164;28;20077;-82
2023/07/08 06:10:18;;;;;;;0.00;0.00;;;;;;;26.11;nan;100667.75;4990751;28;20281;-82
2023/07/08 06:12:43;;;;;;;0.00;0.00;;;;;;;26.11;nan;100670.47;4965840;28;20038;-82
2023/07/08 06:15:09;;;;;;;0.00;0.00;;;;;;;26.04;nan;100676.88;4991645;28;20286;-82
2023/07/08 06:17:34;;;;;;;0.00;0.00;;;;;;;25.91;nan;100681.84;4968993;28;20704;-82
2023/07/08 06:20:01;;;;;;;0.00;0.00;;;;;;;25.71;nan;100690.47;4991050;28;20442;-82
2023/07/08 06:22:27;;;;;;;0.00;0.00;;;;;;;25.49;nan;100691.22;4989780;28;21169;-82
2023/07/08 06:24:52;;;;;;;0.00;0.00;;;;;;;25.32;nan;100688.53;4973988;28;20034;-82
2023/07/08 06:27:17;;;;;;;0.00;0.00;;;;;;;25.42;nan;100690.59;4990882;28;20045;-82
2023/07/08 06:29:43;;;;;;;0.00;0.00;;;;;;;25.28;nan;100683.84;4990349;28;20042;-81
2023/07/08 06:32:08;;;;;;;0.00;0.00;;;;;;;25.42;nan;100690.59;4972552;28;20512;-82
2023/07/08 06:34:34;;;;;;;0.00;0.00;;;;;;;25.78;nan;100686.53;4989610;28;20534;-82
2023/07/08 06:36:59;;;;;;;0.10;0.10;;;;;;;26.19;nan;100681.69;4968084;28;20038;-82
2023/07/08 06:39:24;;;;;;;0.00;0.00;;;;;;;26.56;nan;100674.84;4990487;28;20085;-83
2023/07/08 06:41:49;;;;;;;0.00;0.00;;;;;;;26.78;nan;100667.47;4988146;28;20286;-83
2023/07/08 06:44:15;;;;;;;0.00;0.00;;;;;;;27.19;nan;100675.16;4984935;28;20282;-82
2023/07/08 06:46:40;;;;;;;0.00;0.00;;;;;;;27.39;nan;100674.53;4991678;28;20105;-83
2023/07/08 06:49:08;;;;;;;0.00;0.00;;;;;;;27.38;nan;100662.03;4993637;28;20045;-83
2023/07/08 06:51:34;;;;;;;0.00;0.00;;;;;;;27.27;nan;100653.00;4992884;28;20038;-83
2023/07/08 06:53:59;;;;;;;0.00;0.00;;;;;;;27.16;nan;100646.63;4974159;28;20045;-83
2023/07/08 06:56:24;;;;;;;0.00;0.00;;;;;;;27.14;nan;100643.34;4990946;28;20037;-83
2023/07/08 06:58:50;;;;;;;0.00;0.00;;;;;;;27.16;nan;100646.63;4991670;28;20522;-83
2023/07/08 07:01:15;;;;;;;0.00;0.00;;;;;;;27.17;nan;100648.25;4992315;28;20449;-83
2023/07/08 07:03:40;;;;;;;0.00;0.00;;;;;;;27.35;nan;100657.94;4974737;28;20085;-82
2023/07/08 07:06:06;;;;;;;0.00;0.00;;;;;;;27.63;nan;100645.91;4968965;28;20048;-82
2023/07/08 07:08:31;;;;;;;0.00;0.00;;;;;;;28.15;nan;100645.13;4990847;28;20034;-82
2023/07/08 07:10:56;;;;;;;0.00;0.00;;;;;;;28.55;nan;100640.91;4989758;28;20038;-83
2023/07/08 07:13:21;;;;;;;0.00;0.00;;;;;;;28.57;nan;100649.59;4989671;28;20201;-83
2023/07/08 07:15:50;;;;;;;0.00;0.00;;;;;;;28.40;nan;100649.00;4972107;28;20065;-83
2023/07/08 07:18:15;;;;;;;0.00;0.00;;;;;;;28.11;nan;100640.47;4986530;28;20818;-83
2023/07/08 07:20:50;;;;;;;0.00;0.00;;;;;;;28.00;nan;100647.75;4972561;28;20038;-83
2023/07/08 07:23:16;;;;;;;0.00;0.00;;;;;;;27.93;nan;100644.47;4991271;28;20051;-83
2023/07/08 07:25:41;;;;;;;0.00;0.00;;;;;;;27.95;nan;100645.84;4991872;28;20053;-82
2023/07/08 07:28:06;;;;;;;0.00;0.00;;;;;;;27.89;nan;100648.81;4973931;28;20493;-83
2023/07/08 07:30:32;;;;;;;0.00;0.00;;;;;;;27.75;nan;100651.97;4974962;28;20049;-82
2023/07/08 07:33:01;;;;;;;0.00;0.00;;;;;;;27.66;nan;100658.97;4972175;28;20039;-82
2023/07/08 07:35:26;;;;;;;0.00;0.00;;;;;;;27.75;nan;100676.41;4971326;28;20039;-82
2023/07/08 07:37:52;;;;;;;0.00;0.00;;;;;;;27.64;nan;100660.31;4988919;28;20041;-82
2023/07/08 07:40:17;;;;;;;0.00;0.00;;;;;;;27.78;nan;100674.25;4988689;28;20076;-81
2023/07/08 07:42:44;;;;;;;0.00;0.00;;;;;;;27.97;nan;100670.03;4972570;28;20062;-82
2023/07/08 07:45:10;;;;;;;0.00;0.00;;;;;;;28.13;nan;100670.94;4988729;28;20519;-82
2023/07/08 07:47:36;;;;;;;0.00;0.00;;;;;;;28.21;nan;100683.19;4990766;28;20035;-82
2023/07/08 07:50:03;;;;;;;0.00;0.00;;;;;;;28.14;nan;100676.09;4973539;28;20041;-83
2023/07/08 07:52:28;;;;;;;0.00;0.00;;;;;;;28.33;nan;100686.50;4989829;28;20058;-82
2023/07/08 07:54:55;;;;;;;0.00;0.00;;;;;;;28.82;nan;100683.41;4970471;28;20098;-82
2023/07/08 07:57:23;;;;;;;0.00;0.00;;;;;;;29.74;nan;100688.88;4971870;28;20042;-83
2023/07/08 07:59:49;;;;;;;0.00;0.00;;;;;;;30.53;nan;100697.34;4990258;28;20038;-83
2023/07/08 08:02:15;;;;;;;0.00;0.00;;;;;;;31.34;nan;100692.44;4991825;28;20617;-85
2023/07/08 08:04:40;;;;;;;0.00;0.00;;;;;;;32.12;nan;100683.19;4966204;28;20105;-83
2023/07/08 08:07:06;;;;;;;0.00;0.00;;;;;;;32.85;nan;100685.81;4971996;28;21457;-83
2023/07/08 08:09:31;;;;;;;0.00;0.00;;;;;;;33.61;nan;100695.53;4968000;28;20035;-84
2023/07/08 08:11:56;;;;;;;0.00;0.00;;;;;;;34.09;nan;100701.78;4974978;28;20038;-83
2023/07/08 08:14:22;;;;;;;0.00;0.00;;;;;;;34.39;nan;100703.03;4994483;28;20054;-84
2023/07/08 08:16:47;;;;;;;0.00;0.00;;;;;;;33.92;nan;100703.16;4977472;28;20042;-84
2023/07/08 08:19:12;;;;;;;0.00;0.00;;;;;;;33.50;nan;100702.25;4976152;28;20046;-84
2023/07/08 08:21:38;;;;;;;0.00;0.00;;;;;;;33.49;nan;100711.63;4992702;28;20042;-83
2023/07/08 08:24:03;;;;;;;0.00;0.00;;;;;;;33.20;nan;100706.34;4973812;28;20034;-82
2023/07/08 08:26:29;;;;;;;0.00;0.00;;;;;;;32.87;nan;100709.03;4973068;28;20038;-84
2023/07/08 08:28:55;;;;;;;0.00;0.00;;;;;;;32.65;nan;100714.28;4973311;28;20039;-84
2023/07/08 08:31:20;;;;;;;0.00;0.00;;;;;;;32.26;nan;100718.88;4972363;28;20035;-83
2023/07/08 08:33:46;;;;;;;0.00;0.00;;;;;;;32.19;nan;100718.41;4968614;28;20041;-83
2023/07/08 08:36:11;;;;;;;0.00;0.00;;;;;;;32.14;nan;100716.53;4990606;28;20034;-85
2023/07/08 08:38:36;;;;;;;0.00;0.00;;;;;;;32.07;nan;100721.56;4973685;28;20522;-82
2023/07/08 08:41:14;;;;;;;0.00;0.00;;;;;;;32.05;nan;100717.47;4992081;28;20046;-83
2023/07/08 08:43:41;;;;;;;0.00;0.00;;;;;;;32.28;nan;100718.59;4973953;28;20292;-83
2023/07/08 08:46:25;;;;;;;0.00;0.00;;;;;;;33.17;nan;100717.91;4990660;28;20042;-83
2023/07/08 08:49:02;;;;;;;0.00;0.00;;;;;;;33.79;nan;100721.22;4973272;28;21206;-83
2023/07/08 08:51:32;;;;;;;0.00;0.00;;;;;;;34.05;nan;100715.25;4982869;28;20049;-84
2023/07/08 08:53:59;;;;;;;0.10;0.00;;;;;;;35.01;nan;100727.22;4994370;28;20377;-83
2023/07/08 08:56:28;;;;;;;0.00;0.00;;;;;;;35.57;nan;100727.78;4988994;28;20054;-84
2023/07/08 08:59:03;;;;;;;0.00;0.00;;;;;;;36.37;nan;100717.59;4979992;28;20110;-84
2023/07/08 09:01:29;;;;;;;0.00;0.00;;;;;;;37.07;nan;100717.69;4976567;28;20030;-84
2023/07/08 09:04:00;;;;;;;0.00;0.00;;;;;;;37.55;nan;100722.16;4993859;28;20031;-83
2023/07/08 09:06:30;;;;;;;;;;;;;;;37.82;nan;100721.69;4994720;28;20101;-84
2023/07/08 09:09:00;;;;;;;0.00;0.00;;;;;;;38.17;nan;100713.28;4994781;28;20291;-83
2023/07/08 09:11:34;;;;;;;0.00;0.00;;;;;;;38.52;nan;100703.97;4978506;28;20034;-83
2023/07/08 09:13:59;;;;;;;0.00;0.00;;;;;;;38.89;nan;100707.72;4979011;28;20335;-84
2023/07/08 09:16:56;;;;;;;0.00;0.00;;;;;;;39.03;nan;100699.97;4997304;28;20038;-81
2023/07/08 09:19:32;;;;;;;0.00;0.00;;;;;;;39.11;nan;100697.47;4992221;28;20034;-84
2023/07/08 09:22:14;;;;;;;0.00;0.00;;;;;;;38.88;nan;100706.94;4978399;28;20050;-85
2023/07/08 09:24:44;;;;;;;0.00;0.00;;;;;;;38.72;nan;100702.38;4981227;28;20034;-84
2023/07/08 09:27:09;;;;;;;0.00;0.00;;;;;;;39.03;nan;100702.75;4990268;28;20066;-84
2023/07/08 09:29:34;;;;;;;0.00;0.00;;;;;;;39.38;nan;100702.41;4995679;28;20077;-84
2023/07/08 09:32:14;;;;;;;0.00;0.00;;;;;;;40.06;nan;100695.53;4977446;28;20053;-84
2023/07/08 09:34:50;;;;;;;0.00;0.00;;;;;;;40.55;nan;100698.25;4996320;28;20270;-82
2023/07/08 09:37:38;;;;;;;0.00;0.00;;;;;;;40.89;nan;100694.09;4977243;28;20030;-82
2023/07/08 09:40:15;;;;;;;0.00;0.00;;;;;;;41.47;nan;100685.34;4988868;28;20503;-82
2023/07/08 09:42:43;;;;;;;0.00;0.00;;;;;;;41.47;nan;100688.09;5001110;28;20052;-84
2023/07/08 09:45:16;;;;;;;0.00;0.00;;;;;;;41.29;nan;100695.19;4994883;28;20586;-84
2023/07/08 09:47:45;;;;;;;0.00;0.00;;;;;;;40.48;nan;100693.31;4976525;28;20117;-84
2023/07/08 09:50:26;;;;;;;0.00;0.00;;;;;;;40.49;nan;100691.34;4990369;28;20130;-84
2023/07/08 09:53:00;;;;;;;0.00;0.00;;;;;;;40.01;nan;100690.25;4978246;28;20113;-84
2023/07/08 09:55:27;;;;;;;0.00;0.00;;;;;;;39.90;nan;100679.66;4998752;28;20484;-81
2023/07/08 09:57:53;;;;;;;0.00;0.00;;;;;;;40.29;nan;100676.50;4991258;28;20162;-85
2023/07/08 10:00:28;;;;;;;0.00;0.00;;;;;;;40.45;nan;100682.94;4995921;28;20038;-84
2023/07/08 10:02:59;;;;;;;0.00;0.00;;;;;;;40.45;nan;100677.38;4991834;28;20450;-82
2023/07/08 10:05:41;;;;;;;0.00;0.00;;;;;;;41.29;nan;100670.22;4987541;28;20042;-81
2023/07/08 10:08:18;;;;;;;0.00;0.00;;;;;;;41.45;nan;100684.88;4975438;28;20045;-82
2023/07/08 10:10:47;;;;;;;0.00;0.00;;;;;;;41.04;nan;100669.53;4986083;28;20120;-82
2023/07/08 10:13:23;;;;;;;0.00;0.00;;;;;;;41.91;nan;100678.91;4980778;28;20492;-82
2023/07/08 10:15:59;;;;;;;0.00;0.00;;;;;;;42.68;nan;100680.19;4979216;28;20556;-82
2023/07/08 10:18:27;;;;;;;;;;;;;;;43.07;nan;100683.75;4980108;28;20042;-82
2023/07/08 10:20:57;;;;;;;;;;;;;;;43.48;nan;100684.91;4977791;28;19985;-82
2023/07/08 10:23:29;;;;;;;;;;;;;;;43.28;nan;100677.78;4976322;28;19929;-81
2023/07/08 10:26:00;;;;;;;;;;;;;;;42.52;nan;100681.06;4976847;28;19973;-82
2023/07/08 10:28:25;;;;;;;;;;;;;;;42.53;nan;100679.13;4992770;28;19968;-81
2023/07/08 10:30:59;;;;;;;;;;;;;;;42.79;nan;100681.25;5003674;28;19922;-82
2023/07/08 10:33:42;;;;;;;;;;;;;;;43.08;nan;100684.56;4993851;28;19956;-81
2023/07/08 10:36:17;;;;;;;;;;;;;;;43.47;nan;100686.06;4990955;28;20160;-82
2023/07/08 10:39:01;;;;;;;;;;;;;;;43.74;nan;100680.53;4971950;28;20184;-82
2023/07/08 10:41:35;;;;;;;;;;;;;;;43.85;nan;100680.72;4988369;28;19967;-82
2023/07/08 10:44:19;;;;;;;;;;;;;;;44.21;nan;100679.25;4972064;28;19980;-82
2023/07/08 10:46:50;;;;;;;;;;;;;;;43.72;nan;100676.53;4988630;28;19929;-83
2023/07/08 10:49:24;;;;;;;;;;;;;;;43.11;nan;100667.91;4986248;28;20427;-82
2023/07/08 10:52:09;;;;;;;;;;;;;;;42.99;nan;100668.09;4973175;28;20268;-82
2023/07/08 10:54:43;;;;;;;;;;;;;;;43.56;nan;100659.97;4988006;28;19917;-82
2023/07/08 10:57:14;;;;;;;;;;;;;;;43.82;nan;100665.56;4971730;28;20297;-83
2023/07/08 10:59:50;;;;;;;;;;;;;;;44.21;nan;100662.53;4975068;28;20027;-83
2023/07/08 11:02:34;;;;;;;;;;;;;;;44.47;nan;100664.50;4973049;28;19925;-84
2023/07/08 11:04:59;;;;;;;;;;;;;;;44.89;nan;100659.81;4986749;28;20346;-82
2023/07/08 11:07:25;;;;;;;;;;;;;;;44.94;nan;100660.25;4993557;28;19917;-84
2023/07/08 11:09:54;;;;;;;;;;;;;;;44.94;nan;100659.47;4988578;28;19922;-83
2023/07/08 11:12:25;;;;;;;;;;;;;;;44.51;nan;100654.19;4972252;28;20466;-83
2023/07/08 11:14:56;;;;;;;;;;;;;;;45.10;nan;100650.81;4987394;28;19957;-84
2023/07/08 11:17:33;;;;;;;;;;;;;;;45.15;nan;100642.13;4992938;28;20282;-84
2023/07/08 11:20:15;;;;;;;;;;;;;;;44.33;nan;100646.75;4987420;28;20349;-84
2023/07/08 11:22:46;;;;;;;;;;;;;;;43.76;nan;100641.97;4986837;28;20310;-84
2023/07/08 11:25:17;;;;;;;;;;;;;;;43.92;nan;100638.25;4988877;28;19924;-83
2023/07/08 11:27:43;;;;;;;;;;;;;;;44.89;nan;100641.06;4975697;28;20020;-84
2023/07/08 11:30:08;;;;;;;;;;;;;;;45.80;nan;100646.22;4967043;28;20029;-84
2023/07/08 11:32:34;;;;;;;;;;;;;;;46.01;nan;100640.00;4989189;28;19925;-83
2023/07/08 11:35:01;;;;;;;;;;;;;;;46.26;nan;100636.50;4990357;28;19921;-83
2023/07/08 11:37:28;;;;;;;;;;;;;;;46.66;nan;100640.25;4974182;28;20272;-83
2023/07/08 11:40:13;;;;;;;;;;;;;;;46.29;nan;100641.28;4992969;28;19980;-83
2023/07/08 11:42:40;;;;;;;;;;;;;;;46.18;nan;100633.66;4965633;28;19973;-82
2023/07/08 11:45:18;;;;;;;;;;;;;;;46.13;nan;100628.47;4993501;28;19952;-83
2023/07/08 11:47:48;;;;;;;;;;;;;;;46.68;nan;100629.47;4992804;28;20568;-84
2023/07/08 11:50:19;;;;;;;;;;;;;;;46.93;nan;100632.31;4972664;28;19961;-84
2023/07/08 11:52:57;;;;;;;;;;;;;;;46.83;nan;100633.09;4972513;28;19968;-83
2023/07/08 11:55:28;;;;;;;;;;;;;;;47.14;nan;100623.16;4991558;28;19976;-84